Time;durP1;ratioP1;P1;durP2;ratioP2;P2;SDS_P1;SDS_P2;PMS_P1;PMS_P2;Temp;Humidity;BMP_temperature;BMP_pressure;BME280_temperature;BME280_humidity;BME280_pressure;Samples;Min_cycle;Max_cycle;Signal;HPM_P1;HPM_P2
2023/05/22 00:01:09;;;;;;;0.40;0.23;;;;;;;16.56;87.14;100383.44;4994600;28;20216;-78
2023/05/22 00:03:35;;;;;;;0.10;0.10;;;;;;;16.48;86.72;100376.13;4976526;28;20641;-78
2023/05/22 00:06:01;;;;;;;0.73;0.73;;;;;;;16.37;86.85;100373.09;4992710;28;20185;-76
2023/05/22 00:08:27;;;;;;;0.40;0.40;;;;;;;16.30;87.04;100368.16;4992292;28;20588;-76
2023/05/22 00:10:53;;;;;;;1.30;1.03;;;;;;;16.17;87.56;100374.88;4974950;28;20197;-76
2023/05/22 00:13:18;;;;;;;0.20;0.20;;;;;;;16.11;88.34;100378.25;4992442;28;20224;-76
2023/05/22 00:15:44;;;;;;;0.30;0.30;;;;;;;16.10;89.05;100377.44;4992532;28;20185;-78
2023/05/22 00:18:09;;;;;;;0.03;0.03;;;;;;;16.05;89.23;100377.69;4992369;28;20247;-75
2023/05/22 00:20:37;;;;;;;2.07;1.97;;;;;;;15.97;89.86;100375.88;4992354;28;20247;-76
2023/05/22 00:23:03;;;;;;;0.10;0.10;;;;;;;15.91;89.72;100367.06;4992233;28;20236;-76
2023/05/22 00:25:29;;;;;;;0.33;0.33;;;;;;;15.93;90.04;100370.28;4992566;28;20616;-76
2023/05/22 00:27:54;;;;;;;0.60;0.60;;;;;;;15.95;89.96;100376.22;4992921;28;20268;-78
2023/05/22 00:30:20;;;;;;;0.23;0.23;;;;;;;15.93;90.34;100367.53;4993934;28;20186;-78
2023/05/22 00:32:45;;;;;;;0.00;0.00;;;;;;;15.92;90.64;100371.44;4994141;28;20303;-77
2023/05/22 00:35:11;;;;;;;0.03;0.03;;;;;;;15.92;90.53;100367.88;4994777;28;20217;-78
2023/05/22 00:37:36;;;;;;;1.80;1.70;;;;;;;15.96;90.44;100369.56;4993950;28;20190;-78
2023/05/22 00:40:02;;;;;;;4.73;3.73;;;;;;;16.02;90.45;100370.13;4976733;28;20263;-78
2023/05/22 00:42:28;;;;;;;0.37;0.37;;;;;;;16.12;90.39;100363.31;4994049;28;20211;-78
2023/05/22 00:44:53;;;;;;;0.60;0.60;;;;;;;16.17;89.71;100368.56;4993720;28;20566;-78
2023/05/22 00:47:18;;;;;;;0.93;0.93;;;;;;;16.16;89.36;100358.69;4985556;28;20826;-79
2023/05/22 00:49:45;;;;;;;0.17;0.17;;;;;;;16.04;89.90;100365.03;4993324;28;20185;-78
2023/05/22 00:52:12;;;;;;;0.83;0.83;;;;;;;16.15;89.89;100362.59;4976308;28;20292;-78
2023/05/22 00:54:38;;;;;;;0.77;0.77;;;;;;;16.14;90.29;100363.75;4976386;28;20181;-78
2023/05/22 00:57:04;;;;;;;45.67;3.33;;;;;;;16.05;89.99;100364.69;4993138;28;20706;-78
2023/05/22 00:59:30;;;;;;;0.00;0.00;;;;;;;16.00;90.65;100370.47;4976062;28;20185;-78
2023/05/22 01:01:56;;;;;;;0.00;0.00;;;;;;;16.00;91.26;100370.47;4993305;28;20239;-78
2023/05/22 01:04:22;;;;;;;0.00;0.00;;;;;;;15.86;91.67;100370.03;4975940;28;20244;-78
2023/05/22 01:06:48;;;;;;;0.00;0.00;;;;;;;15.86;92.48;100369.25;4975395;28;20189;-78
2023/05/22 01:09:13;;;;;;;0.00;0.00;;;;;;;15.98;92.32;100370.03;4993679;28;20180;-78
2023/05/22 01:12:09;;;;;;;0.00;0.00;;;;;;;15.93;91.79;100367.53;4993248;28;20295;-77
2023/05/22 01:15:16;;;;;;;0.10;0.10;;;;;;;15.97;91.59;100362.91;4975427;28;20185;-78
2023/05/22 01:17:47;;;;;;;1.20;0.40;;;;;;;16.02;91.20;100354.38;4959200;28;20619;-77
2023/05/22 01:20:18;;;;;;;0.83;0.83;;;;;;;16.06;91.38;100358.06;4985358;28;20204;-78
2023/05/22 01:23:21;;;;;;;1.03;1.03;;;;;;;16.10;90.92;100358.16;4992871;28;20208;-76
2023/05/22 01:26:01;;;;;;;0.23;0.23;;;;;;;16.07;91.04;100356.09;4963448;28;20197;-78
2023/05/22 01:28:58;;;;;;;0.10;0.10;;;;;;;16.00;91.46;100351.19;4992874;28;20181;-78
2023/05/22 01:31:30;;;;;;;0.37;0.37;;;;;;;15.95;92.40;100347.88;4992685;28;20560;-78
2023/05/22 01:33:59;;;;;;;0.47;0.47;;;;;;;15.92;92.24;100345.81;4992957;28;20177;-78
2023/05/22 01:36:29;;;;;;;0.13;0.13;;;;;;;15.85;92.73;100342.84;4959327;28;20189;-78
2023/05/22 01:38:55;;;;;;;0.00;0.00;;;;;;;15.84;93.15;100344.00;4985217;28;20173;-78
2023/05/22 01:41:21;;;;;;;0.20;0.20;;;;;;;15.89;93.48;100343.75;4993006;28;20280;-78
2023/05/22 01:43:47;;;;;;;1.67;1.67;;;;;;;15.95;92.79;100340.41;4978930;28;20255;-77
2023/05/22 01:46:12;;;;;;;0.50;0.50;;;;;;;15.97;93.02;100342.81;4978746;28;20665;-76
2023/05/22 01:48:37;;;;;;;0.10;0.10;;;;;;;15.97;93.10;100346.38;4995874;28;20188;-76
2023/05/22 01:51:42;;;;;;;0.00;0.00;;;;;;;15.91;93.37;100335.94;4996230;28;20268;-78
2023/05/22 01:54:22;;;;;;;0.23;0.23;;;;;;;15.90;93.85;100340.63;4980597;28;20196;-76
2023/05/22 01:56:54;;;;;;;0.00;0.00;;;;;;;15.83;94.08;100343.19;4995465;28;20185;-77
2023/05/22 01:59:36;;;;;;;0.83;0.83;;;;;;;15.69;94.62;100340.81;4996139;28;20275;-77
2023/05/22 02:02:05;;;;;;;0.63;0.63;;;;;;;15.60;95.32;100329.13;4995376;28;20212;-77
2023/05/22 02:04:35;;;;;;;0.00;0.00;;;;;;;15.60;95.45;100325.56;4995485;28;20216;-77
2023/05/22 02:07:02;;;;;;;0.00;0.00;;;;;;;15.63;96.26;100330.41;4995100;28;20733;-77
2023/05/22 02:09:29;;;;;;;0.00;0.00;;;;;;;15.50;96.60;100328.81;4978146;28;20195;-75
2023/05/22 02:11:56;;;;;;;0.10;0.10;;;;;;;15.34;97.93;100323.22;4995613;28;20296;-77
2023/05/22 02:14:22;;;;;;;0.30;0.30;;;;;;;15.27;98.77;100320.22;4995744;28;20643;-77
2023/05/22 02:16:49;;;;;;;0.30;0.30;;;;;;;15.21;99.87;100327.13;4994822;28;20189;-77
2023/05/22 02:19:14;;;;;;;1.40;1.40;;;;;;;15.21;100.00;100324.38;4977777;28;20220;-76
2023/05/22 02:21:40;;;;;;;0.00;0.00;;;;;;;15.19;100.00;100319.22;4994944;28;20201;-75
2023/05/22 02:24:05;;;;;;;0.40;0.40;;;;;;;15.19;100.00;100324.72;4995191;28;20224;-77
2023/05/22 02:26:50;;;;;;;0.00;0.00;;;;;;;15.16;100.00;100308.88;4995091;28;20243;-78
2023/05/22 02:29:16;;;;;;;0.57;0.57;;;;;;;15.03;100.00;100310.03;4995240;28;20181;-76
2023/05/22 02:31:41;;;;;;;0.90;0.83;;;;;;;15.00;100.00;100303.25;4994853;28;20223;-77
2023/05/22 02:34:06;;;;;;;3.10;1.37;;;;;;;14.92;100.00;100301.44;4995074;28;20559;-77
2023/05/22 02:36:32;;;;;;;0.83;0.83;;;;;;;14.84;100.00;100297.66;4994889;28;20337;-78
2023/05/22 02:39:20;;;;;;;0.50;0.50;;;;;;;14.88;100.00;100295.81;4995278;28;20193;-76
2023/05/22 02:41:45;;;;;;;0.10;0.10;;;;;;;14.92;100.00;100303.41;4977839;28;20627;-77
2023/05/22 02:44:11;;;;;;;2.83;1.50;;;;;;;14.87;100.00;100296.97;4994730;28;20208;-76
2023/05/22 02:46:56;;;;;;;0.93;0.93;;;;;;;14.82;100.00;100285.41;4994502;28;20192;-77
2023/05/22 02:49:21;;;;;;;0.03;0.03;;;;;;;14.87;100.00;100296.16;4995013;28;20193;-77
2023/05/22 02:51:47;;;;;;;0.43;0.43;;;;;;;14.77;100.00;100294.69;4994994;28;20212;-78
2023/05/22 02:54:14;;;;;;;0.20;0.20;;;;;;;14.76;100.00;100292.28;4994299;28;20181;-76
2023/05/22 02:56:40;;;;;;;1.43;1.40;;;;;;;14.87;100.00;100298.91;4994323;28;20551;-77
2023/05/22 02:59:05;;;;;;;0.20;0.20;;;;;;;14.87;100.00;100298.91;4995005;28;20195;-78
2023/05/22 03:01:31;;;;;;;0.00;0.00;;;;;;;14.97;100.00;100297.66;4977457;28;20213;-77
2023/05/22 03:03:56;;;;;;;0.00;0.00;;;;;;;14.91;100.00;100293.53;4995008;28;20239;-78
2023/05/22 03:06:24;;;;;;;0.10;0.10;;;;;;;14.79;100.00;100292.38;4994368;28;20185;-77
2023/05/22 03:08:49;;;;;;;0.00;0.00;;;;;;;14.72;100.00;100299.59;4994696;28;20185;-78
2023/05/22 03:11:15;;;;;;;0.00;0.00;;;;;;;14.79;100.00;100303.38;4976936;28;20193;-76
2023/05/22 03:13:40;;;;;;;0.00;0.00;;;;;;;14.92;100.00;100298.69;4994759;28;20184;-77
2023/05/22 03:16:06;;;;;;;0.00;0.00;;;;;;;14.96;100.00;100301.56;4994599;28;20177;-76
2023/05/22 03:18:32;;;;;;;0.20;0.20;;;;;;;14.95;100.00;100308.19;4994511;28;20177;-78
2023/05/22 03:20:57;;;;;;;0.03;0.03;;;;;;;15.00;100.00;100303.25;4995379;28;20533;-78
2023/05/22 03:23:24;;;;;;;0.00;0.00;;;;;;;14.93;100.00;100305.00;4977485;28;20729;-78
2023/05/22 03:25:50;;;;;;;0.27;0.27;;;;;;;14.73;100.00;100303.94;4995100;28;20187;-78
2023/05/22 03:28:15;;;;;;;0.00;0.00;;;;;;;14.70;100.00;100305.44;4977213;28;20249;-78
2023/05/22 03:30:40;;;;;;;0.00;0.00;;;;;;;14.73;100.00;100303.94;4995114;28;20559;-78
2023/05/22 03:33:06;;;;;;;0.00;0.00;;;;;;;14.71;100.00;100307.03;4995123;28;20204;-78
2023/05/22 03:35:31;;;;;;;0.00;0.00;;;;;;;14.75;100.00;100307.16;4995048;28;20189;-78
2023/05/22 03:37:57;;;;;;;0.00;0.00;;;;;;;14.89;100.00;100307.59;4994815;28;20217;-78
2023/05/22 03:40:22;;;;;;;0.00;0.00;;;;;;;14.82;100.00;100304.66;4994824;28;20213;-78
2023/05/22 03:42:48;;;;;;;0.00;0.00;;;;;;;15.00;100.00;100300.50;4994968;28;20700;-78
2023/05/22 03:45:13;;;;;;;0.00;0.00;;;;;;;14.96;100.00;100296.84;4993648;28;20735;-76
2023/05/22 03:47:39;;;;;;;0.00;0.00;;;;;;;14.68;100.00;100296.72;4992603;28;20185;-76
2023/05/22 03:50:04;;;;;;;0.30;0.30;;;;;;;14.59;100.00;100299.56;4992792;28;20192;-76
2023/05/22 03:52:29;;;;;;;0.00;0.00;;;;;;;14.52;100.00;100293.84;4992836;28;20209;-76
2023/05/22 03:54:55;;;;;;;0.20;0.20;;;;;;;14.37;100.00;100294.47;4993016;28;20185;-76
2023/05/22 03:57:20;;;;;;;0.10;0.10;;;;;;;14.30;100.00;100292.28;4992328;28;20586;-77
2023/05/22 03:59:46;;;;;;;0.57;0.57;;;;;;;14.37;100.00;100294.47;4993090;28;20196;-76
2023/05/22 04:02:15;;;;;;;0.47;0.47;;;;;;;14.40;100.00;100299.28;4993231;28;20621;-76
2023/05/22 04:04:41;;;;;;;0.00;0.00;;;;;;;14.59;100.00;100304.25;4992436;28;20205;-76
2023/05/22 04:07:07;;;;;;;0.00;0.00;;;;;;;14.80;100.00;100304.19;4992062;28;20197;-75
2023/05/22 04:09:35;;;;;;;0.00;0.00;;;;;;;14.85;100.00;100301.19;4993258;28;20551;-77
2023/05/22 04:12:01;;;;;;;0.00;0.00;;;;;;;14.89;100.00;100311.16;4975368;28;20219;-76
2023/05/22 04:14:27;;;;;;;0.10;0.10;;;;;;;15.08;100.00;100310.59;4992894;28;20264;-76
2023/05/22 04:16:53;;;;;;;0.00;0.00;;;;;;;15.22;100.00;100309.47;4992443;28;20191;-76
2023/05/22 04:19:19;;;;;;;0.00;0.00;;;;;;;15.35;100.00;100317.34;4992948;28;20664;-77
2023/05/22 04:21:45;;;;;;;0.37;0.37;;;;;;;15.38;100.00;100316.66;4985279;28;20205;-76
2023/05/22 04:24:10;;;;;;;0.30;0.30;;;;;;;15.43;100.00;100313.66;4992911;28;20209;-76
2023/05/22 04:26:37;;;;;;;0.00;0.00;;;;;;;15.46;100.00;100309.41;4992633;28;20235;-77
2023/05/22 04:29:03;;;;;;;0.00;0.00;;;;;;;15.48;100.00;100309.88;4993132;28;20239;-76
2023/05/22 04:31:29;;;;;;;0.00;0.00;;;;;;;15.48;100.00;100318.13;4993027;28;20844;-77
2023/05/22 04:33:54;;;;;;;0.00;0.00;;;;;;;15.50;100.00;100312.28;4992840;28;20187;-76
2023/05/22 04:36:25;;;;;;;0.00;0.00;;;;;;;15.53;100.00;100317.09;4992538;28;20181;-76
2023/05/22 04:38:51;;;;;;;0.00;0.00;;;;;;;15.61;100.00;100321.66;4975072;28;20690;-77
2023/05/22 04:41:16;;;;;;;0.00;0.00;;;;;;;15.72;100.00;100322.78;4992636;28;20181;-76
2023/05/22 04:43:42;;;;;;;0.10;0.10;;;;;;;15.76;100.00;100327.25;4975385;28;20209;-76
2023/05/22 04:46:08;;;;;;;0.00;0.00;;;;;;;15.78;100.00;100318.66;4992958;28;20185;-77
2023/05/22 04:48:34;;;;;;;0.00;0.00;;;;;;;15.80;100.00;100323.81;4992397;28;20239;-77
2023/05/22 04:51:01;;;;;;;0.00;0.00;;;;;;;15.86;100.00;100325.97;4974985;28;20225;-76
2023/05/22 04:53:27;;;;;;;0.00;0.00;;;;;;;15.89;100.00;100325.25;4992318;28;20203;-76
2023/05/22 04:55:53;;;;;;;0.00;0.00;;;;;;;15.85;100.00;100326.31;4992601;28;20208;-77
2023/05/22 04:58:18;;;;;;;0.00;0.00;;;;;;;15.89;100.00;100321.69;4992372;28;20263;-77
2023/05/22 05:00:44;;;;;;;0.00;0.00;;;;;;;15.95;100.00;100315.59;4992426;28;20188;-77
2023/05/22 05:03:10;;;;;;;0.00;0.00;;;;;;;15.92;100.00;100316.31;4992835;28;20212;-76
2023/05/22 05:05:35;;;;;;;0.00;0.00;;;;;;;15.70;100.00;100311.31;4992757;28;20268;-78
2023/05/22 05:08:01;;;;;;;0.00;0.00;;;;;;;15.50;100.00;100298.50;4992438;28;20537;-77
2023/05/22 05:10:26;;;;;;;0.00;0.00;;;;;;;15.48;100.00;100296.91;4992533;28;20203;-76
2023/05/22 05:12:52;;;;;;;0.00;0.00;;;;;;;15.44;100.00;100290.47;4992439;28;20193;-77
2023/05/22 05:15:18;;;;;;;0.00;0.00;;;;;;;15.34;100.00;100296.47;4992481;28;20199;-77
2023/05/22 05:17:43;;;;;;;0.20;0.20;;;;;;;15.35;100.00;100302.78;4991602;28;20189;-76
2023/05/22 05:20:09;;;;;;;0.00;0.00;;;;;;;15.32;100.00;100301.50;4992637;28;20644;-78
2023/05/22 05:22:36;;;;;;;0.00;0.00;;;;;;;15.59;100.00;100299.16;4992397;28;20263;-77
2023/05/22 05:25:02;;;;;;;0.23;0.23;;;;;;;15.66;100.00;100300.22;4992665;28;20189;-75
2023/05/22 05:27:28;;;;;;;0.10;0.10;;;;;;;15.47;100.00;100294.47;4992481;28;20247;-77
2023/05/22 05:29:53;;;;;;;0.00;0.00;;;;;;;15.41;100.00;100296.69;4992443;28;20192;-77
2023/05/22 05:32:18;;;;;;;0.20;0.20;;;;;;;15.37;100.00;100297.72;4992111;28;20299;-77
2023/05/22 05:34:43;;;;;;;0.20;0.20;;;;;;;15.41;100.00;100298.63;4992392;28;20320;-77
2023/05/22 05:37:09;;;;;;;0.93;0.67;;;;;;;15.40;100.00;100297.03;4991257;28;20235;-77
2023/05/22 05:39:34;;;;;;;0.23;0.23;;;;;;;15.46;100.00;100296.44;4991484;28;20272;-75
2023/05/22 05:41:59;;;;;;;0.50;0.50;;;;;;;15.59;100.00;100296.41;4991512;28;20227;-77
2023/05/22 05:44:24;;;;;;;1.83;1.37;;;;;;;15.67;100.00;100301.00;4991736;28;20627;-76
2023/05/22 05:46:51;;;;;;;0.93;0.80;;;;;;;15.68;100.00;100297.91;4973810;28;20276;-75
2023/05/22 05:49:17;;;;;;;0.83;0.83;;;;;;;15.72;100.00;100298.00;4991734;28;20213;-76
2023/05/22 05:51:43;;;;;;;0.20;0.20;;;;;;;15.79;100.00;100300.19;4992075;28;20268;-76
2023/05/22 05:54:08;;;;;;;0.10;0.10;;;;;;;15.88;100.00;100298.06;4992009;28;20189;-75
2023/05/22 05:56:33;;;;;;;16.53;10.00;;;;;;;15.95;100.00;100303.78;4991202;28;20273;-77
2023/05/22 05:58:59;;;;;;;0.00;0.00;;;;;;;16.01;100.00;100299.63;4974141;28;20189;-77
2023/05/22 06:01:25;;;;;;;0.00;0.00;;;;;;;16.10;100.00;100303.03;4991421;28;20189;-76
2023/05/22 06:03:51;;;;;;;0.07;0.07;;;;;;;16.15;100.00;100302.75;4990090;28;20197;-76
2023/05/22 06:06:16;;;;;;;1.23;1.17;;;;;;;16.26;100.00;100306.63;4976097;28;20189;-76
2023/05/22 06:08:42;;;;;;;0.50;0.40;;;;;;;16.36;99.86;100302.56;4987617;28;20295;-78
2023/05/22 06:11:08;;;;;;;0.50;0.50;;;;;;;16.48;99.37;100307.16;4997550;28;20185;-77
2023/05/22 06:13:33;;;;;;;1.83;1.73;;;;;;;16.61;98.32;100303.97;4997965;28;20729;-77
2023/05/22 06:15:58;;;;;;;0.50;0.50;;;;;;;16.76;97.24;100296.09;4997914;28;20715;-78
2023/05/22 06:18:24;;;;;;;0.10;0.10;;;;;;;16.77;96.16;100300.44;4997456;28;20181;-78
2023/05/22 06:20:50;;;;;;;0.30;0.30;;;;;;;16.76;95.29;100296.88;4997360;28;20189;-76
2023/05/22 06:23:16;;;;;;;1.63;1.53;;;;;;;16.83;95.22;100307.31;4996658;28;20212;-76
2023/05/22 06:25:42;;;;;;;1.13;1.13;;;;;;;16.89;95.39;100301.16;4989246;28;20192;-79
2023/05/22 06:28:07;;;;;;;0.63;0.63;;;;;;;17.02;95.20;100295.53;4997266;28;20239;-78
2023/05/22 06:30:33;;;;;;;0.10;0.00;;;;;;;17.15;94.79;100297.84;5000415;28;20189;-78
2023/05/22 06:32:58;;;;;;;0.00;0.00;;;;;;;17.27;94.89;100304.41;4982546;28;20225;-78
2023/05/22 06:35:24;;;;;;;0.40;0.40;;;;;;;17.39;94.79;100299.56;4977834;28;20248;-77
2023/05/22 06:37:49;;;;;;;0.30;0.30;;;;;;;17.52;93.64;100297.50;4984840;28;20200;-78
2023/05/22 06:40:14;;;;;;;0.30;0.30;;;;;;;17.63;92.06;100295.72;4976004;28;20269;-78
2023/05/22 06:42:41;;;;;;;0.30;0.30;;;;;;;17.85;91.73;100299.78;4992166;28;20221;-78
2023/05/22 06:45:07;;;;;;;0.40;0.40;;;;;;;18.06;91.35;100304.91;4991104;28;20185;-77
2023/05/22 06:47:32;;;;;;;0.20;0.20;;;;;;;18.08;88.83;100297.88;4999530;28;20184;-77
2023/05/22 06:49:58;;;;;;;0.40;0.40;;;;;;;18.08;87.94;100297.88;4992740;28;20264;-79
2023/05/22 06:52:23;;;;;;;0.73;0.73;;;;;;;18.12;87.11;100298.75;4981571;28;20205;-78
2023/05/22 06:54:48;;;;;;;0.33;0.33;;;;;;;18.27;87.96;100307.31;4987578;28;20180;-78
2023/05/22 06:57:13;;;;;;;0.80;0.80;;;;;;;18.32;86.96;100305.03;4991635;28;20188;-78
2023/05/22 06:59:39;;;;;;;0.53;0.53;;;;;;;18.44;86.41;100299.34;4998054;28;20295;-75
2023/05/22 07:02:05;;;;;;;0.40;0.40;;;;;;;18.58;87.17;100309.06;4969683;28;20224;-78
2023/05/22 07:04:30;;;;;;;1.80;1.70;;;;;;;18.75;86.21;100311.34;4987235;28;20233;-78
2023/05/22 07:06:55;;;;;;;0.10;0.10;;;;;;;18.85;86.09;100304.41;4987170;28;20224;-78
2023/05/22 07:09:21;;;;;;;0.37;0.37;;;;;;;18.81;84.65;100306.31;4976643;28;20192;-77
2023/05/22 07:11:46;;;;;;;0.40;0.40;;;;;;;18.93;84.70;100301.38;4976219;28;20224;-77
2023/05/22 07:14:11;;;;;;;0.00;0.00;;;;;;;18.88;84.57;100309.19;4983058;28;20182;-77
2023/05/22 07:16:38;;;;;;;0.10;0.10;;;;;;;18.79;84.17;100308.66;4982976;28;20503;-77
2023/05/22 07:19:03;;;;;;;1.73;1.43;;;;;;;18.95;85.77;100310.13;4976492;28;20659;-76
2023/05/22 07:21:30;;;;;;;0.10;0.10;;;;;;;18.86;84.86;100304.03;4994121;28;20188;-76
2023/05/22 07:23:56;;;;;;;0.40;0.40;;;;;;;19.07;85.61;100309.09;4994071;28;20197;-76
2023/05/22 07:26:21;;;;;;;1.00;0.77;;;;;;;19.12;83.62;100305.25;4988725;28;20500;-78
2023/05/22 07:28:47;;;;;;;0.00;0.00;;;;;;;19.31;83.69;100292.06;4992128;28;20181;-76
2023/05/22 07:31:12;;;;;;;0.13;0.13;;;;;;;19.50;82.57;100296.66;4993788;28;20189;-76
2023/05/22 07:33:38;;;;;;;0.77;0.77;;;;;;;19.64;81.28;100290.56;4993044;28;20812;-76
2023/05/22 07:36:03;;;;;;;1.63;0.87;;;;;;;19.72;79.67;100292.25;4993902;28;20185;-76
2023/05/22 07:38:28;;;;;;;0.70;0.70;;;;;;;19.61;77.37;100285.78;4993622;28;20220;-76
2023/05/22 07:40:54;;;;;;;0.67;0.67;;;;;;;19.61;78.14;100285.78;4975935;28;20201;-76
2023/05/22 07:43:20;;;;;;;0.03;0.03;;;;;;;19.76;78.82;100292.28;4993661;28;20718;-76
2023/05/22 07:45:45;;;;;;;0.50;0.50;;;;;;;19.86;79.44;100291.63;4993995;28;20177;-77
2023/05/22 07:48:10;;;;;;;0.20;0.20;;;;;;;19.94;79.40;100290.53;4993401;28;20185;-77
2023/05/22 07:50:36;;;;;;;0.10;0.10;;;;;;;19.97;78.66;100283.44;4976372;28;20185;-77
2023/05/22 07:53:03;;;;;;;0.73;0.73;;;;;;;19.85;77.14;100287.25;4976264;28;20205;-76
2023/05/22 07:55:28;;;;;;;0.03;0.03;;;;;;;19.89;78.50;100283.34;4993580;28;20173;-81
2023/05/22 07:57:55;;;;;;;0.00;0.00;;;;;;;19.99;78.50;100287.44;4992958;28;20557;-84
2023/05/22 08:00:21;;;;;;;0.93;0.93;;;;;;;20.25;79.34;100286.50;4993916;28;20192;-83
2023/05/22 08:02:46;;;;;;;0.03;0.03;;;;;;;20.51;78.49;100280.06;4959641;28;20213;-83
2023/05/22 08:05:12;;;;;;;0.00;0.00;;;;;;;20.67;76.75;100274.25;4993588;28;20185;-76
2023/05/22 08:07:37;;;;;;;1.83;1.73;;;;;;;20.77;75.83;100282.66;4993023;28;20194;-77
2023/05/22 08:10:07;;;;;;;0.83;0.57;;;;;;;20.72;74.52;100274.69;4993396;28;20703;-76
2023/05/22 08:12:32;;;;;;;0.53;0.53;;;;;;;20.54;73.73;100273.72;4993996;28;20624;-75
2023/05/22 08:14:57;;;;;;;1.40;1.40;;;;;;;20.64;74.25;100283.34;4973845;28;20232;-77
2023/05/22 08:17:23;;;;;;;4.27;1.20;;;;;;;20.70;73.42;100270.72;4987328;28;20244;-77
2023/05/22 08:19:48;;;;;;;0.23;0.23;;;;;;;20.80;74.13;100284.66;4992588;28;20261;-76
2023/05/22 08:22:13;;;;;;;0.23;0.23;;;;;;;20.88;73.79;100274.41;4967569;28;20256;-77
2023/05/22 08:24:39;;;;;;;0.00;0.00;;;;;;;21.04;74.03;100280.50;4993369;28;20649;-78
2023/05/22 08:27:04;;;;;;;0.73;0.73;;;;;;;20.94;72.76;100270.09;4975442;28;20182;-77
2023/05/22 08:29:29;;;;;;;0.40;0.40;;;;;;;20.86;73.70;100278.78;4993570;28;20187;-77
2023/05/22 08:31:56;;;;;;;0.13;0.13;;;;;;;21.13;73.65;100274.59;4993408;28;20269;-77
2023/05/22 08:34:22;;;;;;;25.73;1.27;;;;;;;21.29;73.44;100274.34;4993804;28;20213;-76
2023/05/22 08:36:48;;;;;;;1.43;1.33;;;;;;;21.42;73.07;100264.50;4993075;28;20221;-77
2023/05/22 08:39:14;;;;;;;0.60;0.60;;;;;;;21.37;72.09;100257.28;4984950;28;20188;-77
2023/05/22 08:41:42;;;;;;;0.23;0.23;;;;;;;21.26;72.05;100252.84;4992842;28;20295;-76
2023/05/22 08:44:07;;;;;;;1.07;0.83;;;;;;;21.23;73.68;100268.31;4993134;28;20214;-78
2023/05/22 08:46:36;;;;;;;1.83;1.73;;;;;;;21.31;73.23;100256.09;4996583;28;20195;-78
2023/05/22 08:49:03;;;;;;;0.83;0.83;;;;;;;21.34;74.29;100260.84;4994137;28;20190;-78
2023/05/22 08:51:34;;;;;;;1.70;1.60;;;;;;;21.35;73.40;100253.31;4993299;28;20327;-78
2023/05/22 08:54:03;;;;;;;0.00;0.00;;;;;;;21.42;74.24;100260.91;4985963;28;20185;-78
2023/05/22 08:56:29;;;;;;;0.37;0.37;;;;;;;21.30;75.20;100260.06;4993967;28;20186;-78
2023/05/22 08:58:58;;;;;;;1.57;1.13;;;;;;;21.34;74.88;100255.31;4994221;28;20258;-79
2023/05/22 09:01:23;;;;;;;0.80;0.80;;;;;;;21.36;74.74;100247.38;4994175;28;20192;-78
2023/05/22 09:03:50;;;;;;;1.13;1.07;;;;;;;21.51;76.47;100261.34;4993943;28;20737;-78
2023/05/22 09:06:16;;;;;;;0.07;0.07;;;;;;;21.62;76.98;100260.19;4994223;28;20194;-78
2023/05/22 09:08:42;;;;;;;0.77;0.60;;;;;;;21.70;74.56;100244.34;4993026;28;20269;-78
2023/05/22 09:11:09;;;;;;;0.90;0.90;;;;;;;21.83;74.48;100256.69;4993944;28;20654;-78
2023/05/22 09:13:38;;;;;;;1.00;1.00;;;;;;;22.20;75.11;100245.31;4976109;28;20232;-78
2023/05/22 09:16:11;;;;;;;1.40;1.30;;;;;;;22.25;71.51;100236.56;4976636;28;20632;-78
2023/05/22 09:18:38;;;;;;;0.00;0.00;;;;;;;22.55;73.46;100250.09;4986359;28;20268;-78
2023/05/22 09:21:07;;;;;;;1.23;1.13;;;;;;;22.68;71.59;100236.56;4975941;28;20196;-78
2023/05/22 09:23:33;;;;;;;0.10;0.10;;;;;;;22.52;70.26;100233.41;4976232;28;20217;-76
2023/05/22 09:26:00;;;;;;;0.00;0.00;;;;;;;22.47;71.62;100237.38;4977413;28;20193;-80
2023/05/22 09:28:26;;;;;;;0.67;0.37;;;;;;;22.65;70.73;100231.00;4989158;28;20174;-81
2023/05/22 09:30:53;;;;;;;0.50;0.50;;;;;;;22.79;70.84;100234.59;4975091;28;20391;-77
2023/05/22 09:33:21;;;;;;;0.30;0.30;;;;;;;22.91;69.43;100225.06;4990008;28;20213;-78
2023/05/22 09:35:47;;;;;;;0.77;0.77;;;;;;;23.12;69.69;100222.22;4975407;28;20238;-78
2023/05/22 09:38:12;;;;;;;0.97;0.97;;;;;;;23.30;70.58;100233.34;4994146;28;20242;-77
2023/05/22 09:40:39;;;;;;;1.13;1.10;;;;;;;23.19;70.05;100235.34;4995496;28;20177;-78
2023/05/22 09:43:09;;;;;;;2.77;2.60;;;;;;;22.55;69.62;100216.69;4976081;28;20213;-78
2023/05/22 09:45:35;;;;;;;11.60;1.87;;;;;;;22.62;70.99;100226.25;4976292;28;20188;-78
2023/05/22 09:48:05;;;;;;;0.17;0.17;;;;;;;22.84;71.69;100233.41;4993454;28;20200;-77
2023/05/22 09:50:31;;;;;;;3.77;3.47;;;;;;;22.68;71.07;100233.00;4993945;28;20193;-76
2023/05/22 09:53:00;;;;;;;2.10;2.00;;;;;;;22.83;71.28;100229.03;4993060;28;20197;-77
2023/05/22 09:55:26;;;;;;;0.70;0.70;;;;;;;22.90;71.45;100242.19;4993620;28;20595;-77
2023/05/22 09:57:53;;;;;;;1.07;0.93;;;;;;;23.10;71.15;100235.75;4993180;28;20607;-78
2023/05/22 10:00:19;;;;;;;0.60;0.60;;;;;;;23.00;69.82;100230.19;4976093;28;20185;-78
2023/05/22 10:02:45;;;;;;;0.90;0.40;;;;;;;23.13;69.47;100223.78;4976465;28;20208;-78
2023/05/22 10:05:14;;;;;;;1.60;1.50;;;;;;;23.26;69.77;100220.59;4996722;28;20196;-76
2023/05/22 10:07:48;;;;;;;0.73;0.60;;;;;;;23.30;68.61;100218.59;4995807;28;20195;-77
2023/05/22 10:10:16;;;;;;;1.10;1.00;;;;;;;23.23;68.19;100221.38;4978013;28;20604;-77
2023/05/22 10:12:47;;;;;;;1.43;1.33;;;;;;;23.31;69.27;100218.19;4995490;28;20209;-76
2023/05/22 10:15:12;;;;;;;0.13;0.13;;;;;;;23.27;68.24;100219.38;4995492;28;20190;-76
2023/05/22 10:17:38;;;;;;;1.83;1.67;;;;;;;23.07;68.39;100214.28;4996225;28;20563;-77
2023/05/22 10:20:06;;;;;;;0.97;0.97;;;;;;;23.05;68.37;100215.88;4997318;28;20216;-77
2023/05/22 10:22:36;;;;;;;1.50;1.40;;;;;;;23.15;68.72;100209.47;4994266;28;20209;-76
2023/05/22 10:25:03;;;;;;;0.87;0.87;;;;;;;23.12;67.99;100218.63;4961188;28;20221;-76
2023/05/22 10:27:28;;;;;;;0.80;0.80;;;;;;;23.53;69.24;100212.53;4993968;28;20188;-77
2023/05/22 10:30:05;;;;;;;4.63;4.03;;;;;;;23.52;65.92;100195.00;4994296;28;20189;-77
2023/05/22 10:32:39;;;;;;;2.17;2.00;;;;;;;23.51;66.66;100198.19;4994131;28;20237;-77
2023/05/22 10:35:24;;;;;;;1.10;1.10;;;;;;;23.92;69.04;100221.53;4994377;28;20203;-76
2023/05/22 10:37:52;;;;;;;2.97;2.77;;;;;;;23.50;65.71;100177.88;4994055;28;20184;-74
2023/05/22 10:40:29;;;;;;;0.83;0.83;;;;;;;23.61;66.97;100189.81;4994426;28;20189;-76
2023/05/22 10:43:03;;;;;;;1.07;1.07;;;;;;;23.76;66.18;100195.31;4976675;28;20209;-76
2023/05/22 10:45:29;;;;;;;3.37;3.10;;;;;;;23.80;65.23;100177.34;4976962;28;20185;-78
2023/05/22 10:48:05;;;;;;;3.63;2.83;;;;;;;23.85;64.25;100174.09;4993852;28;20243;-78
2023/05/22 10:50:30;;;;;;;2.13;1.93;;;;;;;24.25;64.38;100175.44;4994405;28;20189;-76
2023/05/22 10:53:32;;;;;;;0.60;0.60;;;;;;;24.47;64.11;100172.50;4994033;28;20713;-76
2023/05/22 10:56:01;;;;;;;0.57;0.57;;;;;;;24.42;63.51;100172.94;4879515;29;20732;-76
2023/05/22 10:58:31;;;;;;;3.23;3.03;;;;;;;24.21;63.29;100162.72;4976255;28;20208;-77
2023/05/22 11:01:19;;;;;;;0.63;0.63;;;;;;;24.42;64.29;100184.09;4994841;28;20288;-78
2023/05/22 11:04:00;;;;;;;1.03;1.03;;;;;;;24.79;63.19;100172.97;4977007;28;20209;-77
2023/05/22 11:06:41;;;;;;;0.63;0.63;;;;;;;24.51;61.84;100162.06;4994379;28;20666;-75
2023/05/22 11:09:20;;;;;;;7.63;0.87;;;;;;;24.59;62.15;100167.19;4977250;28;20619;-76
2023/05/22 11:11:46;;;;;;;0.83;0.83;;;;;;;24.45;62.03;100170.13;4994232;28;20201;-76
2023/05/22 11:14:15;;;;;;;0.90;0.90;;;;;;;24.81;62.06;100164.19;4977796;28;20267;-75
2023/05/22 11:16:41;;;;;;;0.53;0.53;;;;;;;24.93;62.58;100170.03;4995206;28;20248;-75
2023/05/22 11:19:08;;;;;;;3.97;2.13;;;;;;;24.73;60.73;100148.69;4994948;28;20261;-76
2023/05/22 11:21:43;;;;;;;0.30;0.30;;;;;;;24.92;61.86;100162.06;4995062;28;20231;-78
2023/05/22 11:24:09;;;;;;;0.10;0.10;;;;;;;25.31;61.61;100152.44;4994824;28;20204;-77